Sunday, April 22, 2018, 5:53 PM EDT
Back to Local

KPWM, Portland International Jetport

Location: Portland, ME, United States Lat: 43.65
Local Time: 5:53 PM EDT (21:53 GMT) Lon: -70.3
Time Zone: US/Eastern Elev: 75 ft

Show me the last for .
Show Decoded

2018-04-22 16:51 METAR KPWM 222051Z 36011G21KT 340V050 10SM CLR 16/M12 A3027 RMK AO2 SLP251
                 T01561122 58009 =
2018-04-22 15:51 METAR KPWM 221951Z 32013G22KT 10SM CLR 16/M11 A3028 RMK AO2 SLP255 T01561111 =
2018-04-22 14:51 METAR KPWM 221851Z 33011G24KT 10SM CLR 15/M11 A3029 RMK AO2 SLP256 T01501106 =
2018-04-22 13:51 METAR KPWM 221751Z 35011G23KT 10SM CLR 15/M10 A3030 RMK AO2 SLP260 T01501100
                 10150 20061 56009 =
2018-04-22 12:51 METAR KPWM 221651Z 33010G21KT 10SM CLR 14/M09 A3030 RMK AO2 SLP261 T01391094 =
2018-04-22 11:51 METAR KPWM 221551Z 31015KT 10SM CLR 12/M09 A3031 RMK AO2 SLP265 T01221094 =
2018-04-22 10:51 METAR KPWM 221451Z 32015G20KT 10SM CLR 11/M08 A3032 RMK AO2 SLP268 T01111083
                 50001 =
2018-04-22 09:51 METAR KPWM 221351Z 32011G18KT 10SM CLR 11/M07 A3033 RMK AO2 SLP270 T01061072 =
2018-04-22 08:51 METAR KPWM 221251Z 32011G16KT 10SM CLR 09/M05 A3033 RMK AO2 SLP269 T00941050 =
2018-04-22 07:51 METAR KPWM 221151Z 31009KT 10SM CLR 06/M03 A3032 RMK AO2 SLP268 T00611033 10061
                 20000 51012 =
2018-04-22 06:51 METAR KPWM 221051Z 28006KT 10SM CLR 02/M03 A3032 RMK AO2 SLP266 T00221033 =
2018-04-22 05:51 METAR KPWM 220951Z 28007KT 10SM CLR 01/M04 A3030 RMK AO2 SLP259 T00061044 =
2018-04-22 04:51 METAR KPWM 220851Z 27005KT 10SM CLR 01/M04 A3029 RMK AO2 SLP256 T00111044 53002
                 =
2018-04-22 03:51 METAR KPWM 220751Z AUTO 29003KT 10SM CLR 01/M04 A3029 RMK AO2 SLP256 T00061044 =
2018-04-22 02:51 METAR KPWM 220651Z AUTO 28006KT 10SM CLR 02/M04 A3028 RMK AO2 SLP254 T00171044 =
2018-04-22 01:51 METAR KPWM 220551Z AUTO 27004KT 10SM CLR 02/M04 A3028 RMK AO2 SLP254 T00221039
                 10094 20000 56000 =
2018-04-22 00:51 METAR KPWM 220451Z AUTO 00000KT 10SM CLR 02/M04 A3028 RMK AO2 SLP254 T00221039
                 401391006 =
2018-04-21 23:51 METAR KPWM 220351Z VRB04KT 10SM CLR 05/M05 A3028 RMK AO2 SLP254 LAST T00501050 =
2018-04-21 22:51 METAR KPWM 220251Z 31003KT 10SM CLR 08/M06 A3028 RMK AO2 SLP254 T00781061 50015
                 =
2018-04-21 21:51 METAR KPWM 220151Z 33006KT 10SM FEW080 07/M06 A3028 RMK AO2 SLP255 T00721056 =
2018-04-21 20:51 METAR KPWM 220051Z VRB06KT 10SM CLR 08/M06 A3027 RMK AO2 SLP249 T00831056 =
2018-04-21 19:51 METAR KPWM 212351Z 34009KT 10SM CLR 09/M06 A3024 RMK AO2 SLP240 T00941061 10139
                 20094 53023 =
2018-04-21 18:51 METAR KPWM 212251Z 33011G20KT 10SM CLR 11/M06 A3020 RMK AO2 SLP228 T01111061 =

Support USWX by starting your Amazon purchase here.